createdAt,value
2018-07-04T00:02:37.312Z,56.10
2018-07-04T00:07:47.649Z,56.60
2018-07-04T00:12:57.852Z,55.50
2018-07-04T00:18:08.099Z,56.00
2018-07-04T00:23:18.419Z,56.30
2018-07-04T00:28:28.747Z,57.10
2018-07-04T00:33:39.068Z,57.50
2018-07-04T00:38:49.380Z,57.00
2018-07-04T00:49:04.220Z,57.90
2018-07-04T00:54:14.381Z,58.40
2018-07-04T00:59:24.706Z,58.80
2018-07-04T01:04:34.900Z,59.30
2018-07-04T01:14:51.275Z,59.10
2018-07-04T01:20:01.808Z,59.00
2018-07-04T01:25:12.145Z,59.30
2018-07-04T01:30:22.552Z,59.60
2018-07-04T01:35:32.950Z,59.70
2018-07-04T01:40:43.124Z,59.90
2018-07-04T01:45:53.499Z,59.60
2018-07-04T01:51:03.952Z,59.30
2018-07-04T01:56:14.385Z,57.80
2018-07-04T02:01:24.607Z,56.00
2018-07-04T02:06:35.024Z,55.50
2018-07-04T02:16:49.783Z,54.70
2018-07-04T02:22:00.081Z,55.70
2018-07-04T02:27:11.604Z,55.50
2018-07-04T02:32:21.842Z,55.20
2018-07-04T02:37:32.277Z,54.70
2018-07-04T02:42:42.702Z,54.50
2018-07-04T02:47:53.074Z,54.60
2018-07-04T02:53:03.456Z,55.20
2018-07-04T02:58:13.714Z,55.30
2018-07-04T03:03:24.409Z,54.70
2018-07-04T03:08:34.791Z,55.10
2018-07-04T03:13:45.247Z,55.70
2018-07-04T03:18:55.512Z,56.40
2018-07-04T03:24:05.962Z,57.00
2018-07-04T03:29:16.255Z,57.40
2018-07-04T03:34:26.696Z,56.90
2018-07-04T03:39:36.839Z,56.50
2018-07-04T03:44:47.117Z,56.70
2018-07-04T03:49:57.284Z,56.60
2018-07-04T03:55:07.652Z,56.80
2018-07-04T04:00:17.946Z,57.10
2018-07-04T04:05:28.170Z,57.10
2018-07-04T04:10:38.583Z,57.00
2018-07-04T04:15:48.742Z,57.00
2018-07-04T04:20:59.044Z,57.40
2018-07-04T04:26:09.506Z,57.90
2018-07-04T04:31:19.762Z,58.20
2018-07-04T04:36:30.148Z,58.20
2018-07-04T04:41:40.350Z,58.20
2018-07-04T04:46:50.603Z,58.10
2018-07-04T04:52:00.889Z,58.20
2018-07-04T04:57:11.368Z,57.70
2018-07-04T05:02:21.676Z,55.50
2018-07-04T05:07:32.025Z,54.00
2018-07-04T05:17:46.829Z,54.30
2018-07-04T05:22:57.190Z,52.60
2018-07-04T05:28:07.610Z,50.90
2018-07-04T05:33:17.992Z,50.60
2018-07-04T05:38:28.235Z,49.80
2018-07-04T05:43:39.645Z,49.00
2018-07-04T05:48:50.017Z,47.10
2018-07-04T05:59:05.187Z,46.30
2018-07-04T06:04:15.411Z,44.80
2018-07-04T06:14:30.441Z,45.60
2018-07-04T06:19:41.333Z,44.40
2018-07-04T06:24:51.656Z,42.30
2018-07-04T06:30:02.072Z,39.70
2018-07-04T06:39:59.411Z,39.60
2018-07-04T06:44:51.699Z,40.60
2018-07-04T06:49:43.946Z,38.10
2018-07-04T06:54:36.219Z,37.50
2018-07-04T06:59:28.548Z,39.10
2018-07-04T07:04:38.938Z,40.90
2018-07-04T07:09:49.320Z,42.40
2018-07-04T07:14:59.587Z,42.70
2018-07-04T07:20:10.062Z,41.70
2018-07-04T07:25:20.385Z,42.00
2018-07-04T07:30:30.796Z,40.90
2018-07-04T07:35:41.066Z,38.50
2018-07-04T07:40:51.461Z,35.70
2018-07-04T07:46:01.796Z,33.80
2018-07-04T07:51:12.134Z,33.30
2018-07-04T07:56:22.369Z,33.30
2018-07-04T08:01:32.667Z,31.80
2018-07-04T08:06:43.114Z,33.30
2018-07-04T08:11:53.494Z,33.80
2018-07-04T08:17:03.765Z,35.40
2018-07-04T08:22:13.922Z,37.70
2018-07-04T08:27:24.445Z,38.80
2018-07-04T08:32:34.610Z,37.10
2018-07-04T08:37:44.875Z,35.50
2018-07-04T08:42:55.098Z,35.20
2018-07-04T08:48:05.869Z,35.20
2018-07-04T08:53:16.436Z,35.90
2018-07-04T08:58:26.749Z,38.10
2018-07-04T09:03:37.187Z,38.80
2018-07-04T09:08:47.409Z,39.50
2018-07-04T09:13:57.810Z,49.00
2018-07-04T09:19:08.174Z,55.50
2018-07-04T09:29:23.077Z,64.90
2018-07-04T09:34:33.502Z,69.50
2018-07-04T09:39:43.636Z,71.90
2018-07-04T09:44:53.891Z,79.80
2018-07-04T09:50:04.230Z,78.10
2018-07-04T09:55:14.464Z,76.50
2018-07-04T10:00:28.815Z,75.30
2018-07-04T10:05:39.084Z,79.40
2018-07-04T10:10:49.458Z,80.40
2018-07-04T10:15:59.770Z,69.70
2018-07-04T10:21:10.202Z,70.50
2018-07-04T10:26:20.484Z,69.30
2018-07-04T10:31:30.690Z,71.50
2018-07-04T10:36:41.092Z,71.30
2018-07-04T10:52:00.292Z,68.50
2018-07-04T10:57:10.791Z,67.70
2018-07-04T11:02:21.092Z,62.80
2018-07-04T11:12:36.299Z,60.00
2018-07-04T11:17:46.792Z,61.10
2018-07-04T11:28:01.788Z,62.10
2018-07-04T11:33:12.203Z,61.10
2018-07-04T11:38:22.561Z,60.00
2018-07-04T11:43:33.470Z,59.60
2018-07-04T11:48:25.083Z,59.40
2018-07-04T11:53:16.761Z,57.90
2018-07-04T11:58:08.329Z,56.80
2018-07-04T12:02:59.898Z,56.20
2018-07-04T12:12:43.529Z,56.40
2018-07-04T12:17:35.125Z,54.90
2018-07-04T12:22:26.731Z,56.70
2018-07-04T12:27:18.316Z,57.00
2018-07-04T12:32:09.911Z,58.80
2018-07-04T12:37:01.477Z,59.20
2018-07-04T12:41:53.056Z,60.40
2018-07-04T12:46:44.662Z,61.40
2018-07-04T12:51:36.233Z,61.60
2018-07-04T12:56:46.650Z,62.80
2018-07-04T13:07:01.751Z,64.50
2018-07-04T13:17:16.620Z,66.30
2018-07-04T13:22:26.843Z,73.90
2018-07-04T13:32:41.789Z,83.10
2018-07-04T13:37:52.071Z,84.70
2018-07-04T13:43:02.282Z,86.70
2018-07-04T13:48:12.678Z,86.30
2018-07-04T13:53:23.040Z,86.90
2018-07-04T13:58:33.975Z,86.70
2018-07-04T14:03:44.622Z,85.20
2018-07-04T14:08:55.056Z,85.10
2018-07-04T14:14:05.352Z,84.80
2018-07-04T14:19:15.770Z,81.90
2018-07-04T14:24:26.136Z,81.10
2018-07-04T14:34:41.159Z,78.60
2018-07-04T14:44:56.097Z,77.70
2018-07-04T14:50:06.574Z,76.80
2018-07-04T14:55:16.995Z,75.50
2018-07-04T15:00:27.355Z,74.20
2018-07-04T15:05:37.689Z,73.00
2018-07-04T15:10:47.928Z,71.20
2018-07-04T15:15:58.233Z,67.70
2018-07-04T15:21:08.478Z,68.30
2018-07-04T15:26:18.780Z,68.60
2018-07-04T15:31:29.248Z,67.70
2018-07-04T15:41:45.171Z,68.10
2018-07-04T15:46:55.747Z,68.80
2018-07-04T15:52:06.004Z,69.30
2018-07-04T15:57:16.860Z,70.40
2018-07-04T16:02:27.405Z,70.80
2018-07-04T16:12:42.358Z,72.60
2018-07-04T16:17:52.658Z,72.40
2018-07-04T16:23:02.891Z,72.60
2018-07-04T16:28:13.212Z,72.40
2018-07-04T16:33:23.584Z,72.50
2018-07-04T16:38:33.979Z,73.40
2018-07-04T16:43:44.172Z,74.90
2018-07-04T16:53:59.317Z,76.50
2018-07-04T16:59:09.528Z,76.30
2018-07-04T17:04:19.942Z,75.80
2018-07-04T17:09:30.237Z,73.60
2018-07-04T17:14:40.598Z,72.30
2018-07-04T17:19:51.093Z,70.80
2018-07-04T17:25:01.349Z,70.50
2018-07-04T17:30:11.840Z,72.10
2018-07-04T17:35:22.242Z,69.20
2018-07-04T17:40:32.580Z,66.70
2018-07-04T17:45:42.977Z,71.70
2018-07-04T17:50:53.239Z,70.20
2018-07-04T17:56:03.633Z,71.00
2018-07-04T18:01:14.062Z,68.40
2018-07-04T18:06:24.416Z,67.10
2018-07-04T18:11:34.706Z,69.60
2018-07-04T18:16:45.018Z,72.40
2018-07-04T18:21:55.412Z,77.80
2018-07-04T18:27:05.612Z,80.60
2018-07-04T18:32:15.891Z,82.90
2018-07-04T18:37:26.736Z,84.40
2018-07-04T18:42:37.024Z,84.80
2018-07-04T18:47:47.295Z,85.90
2018-07-04T18:52:57.694Z,87.00
2018-07-04T18:58:07.990Z,86.40
2018-07-04T19:03:18.489Z,85.90
2018-07-04T19:13:34.096Z,86.60
2018-07-04T19:18:45.541Z,87.10
2018-07-04T19:23:56.149Z,87.40
2018-07-04T19:29:06.452Z,88.20
2018-07-04T19:34:16.693Z,89.50
2018-07-04T19:39:27.054Z,90.00
2018-07-04T19:44:37.232Z,90.00
2018-07-04T19:49:47.503Z,90.40
2018-07-04T19:54:58.478Z,90.40
2018-07-04T20:00:08.833Z,90.60
2018-07-04T20:05:19.234Z,90.70
2018-07-04T20:10:29.489Z,90.80
2018-07-04T20:15:39.693Z,90.90
2018-07-04T20:20:49.931Z,91.10
2018-07-04T20:26:00.089Z,91.50
2018-07-04T20:36:15.049Z,92.00
2018-07-04T20:41:25.484Z,92.20
2018-07-04T20:51:40.264Z,92.40
2018-07-04T20:56:50.835Z,92.60
2018-07-04T21:02:01.156Z,92.80
2018-07-04T21:12:15.862Z,93.50
2018-07-04T21:22:30.526Z,94.30
2018-07-04T21:27:40.929Z,94.50
2018-07-04T21:32:51.207Z,94.30
2018-07-04T21:38:01.468Z,94.40
2018-07-04T21:43:11.693Z,94.20
2018-07-04T21:48:22.014Z,94.20
2018-07-04T21:53:32.346Z,94.10
2018-07-04T21:58:42.630Z,94.00
2018-07-04T22:03:52.974Z,94.10
2018-07-04T22:09:03.929Z,94.20
2018-07-04T22:14:14.179Z,94.50
2018-07-04T22:19:24.483Z,94.50
2018-07-04T22:24:34.783Z,94.80
2018-07-04T22:29:45.340Z,94.90
2018-07-04T22:34:55.799Z,95.20
2018-07-04T22:40:06.284Z,95.50
2018-07-04T22:45:16.778Z,95.90
2018-07-04T22:50:27.450Z,96.10
2018-07-04T22:55:37.928Z,96.00
2018-07-04T23:00:48.444Z,96.30
2018-07-04T23:16:08.064Z,97.30
2018-07-04T23:21:18.469Z,96.90
2018-07-04T23:31:33.277Z,97.50
2018-07-04T23:41:48.192Z,97.70
2018-07-04T23:52:02.961Z,98.10
2018-07-04T23:57:13.315Z,98.00
